sensor_id;sensor_type;location;lat;lon;timestamp;noise_LAeq;noise_LA_min;noise_LA_max;noise_LA01;noise_LA95
66747;Laerm;53658;50.742;10.864;2023-09-19T00:00:46;38.75;35.36;44.11;;
66747;Laerm;53658;50.742;10.864;2023-09-19T00:03:15;38.72;35.36;41.53;;
66747;Laerm;53658;50.742;10.864;2023-09-19T00:05:41;38.68;35.36;40.71;;
66747;Laerm;53658;50.742;10.864;2023-09-19T00:08:10;38.70;35.36;41.96;;
66747;Laerm;53658;50.742;10.864;2023-09-19T00:10:36;38.69;35.94;42.71;;
66747;Laerm;53658;50.742;10.864;2023-09-19T00:13:03;38.71;35.94;42.35;;
66747;Laerm;53658;50.742;10.864;2023-09-19T00:15:42;38.84;35.66;43.94;;
66747;Laerm;53658;50.742;10.864;2023-09-19T00:18:08;38.69;35.66;42.03;;
66747;Laerm;53658;50.742;10.864;2023-09-19T00:20:38;38.67;35.66;41.22;;
66747;Laerm;53658;50.742;10.864;2023-09-19T00:23:05;38.70;35.04;41.14;;
66747;Laerm;53658;50.742;10.864;2023-09-19T00:25:37;38.64;35.36;41.14;;
66747;Laerm;53658;50.742;10.864;2023-09-19T00:28:04;38.69;35.04;41.22;;
66747;Laerm;53658;50.742;10.864;2023-09-19T00:30:31;38.65;35.04;41.06;;
66747;Laerm;53658;50.742;10.864;2023-09-19T00:32:57;38.69;35.36;41.30;;
66747;Laerm;53658;50.742;10.864;2023-09-19T00:35:23;38.66;35.36;41.06;;
66747;Laerm;53658;50.742;10.864;2023-09-19T00:37:53;38.72;35.94;41.14;;
66747;Laerm;53658;50.742;10.864;2023-09-19T00:40:20;38.69;35.66;41.61;;
66747;Laerm;53658;50.742;10.864;2023-09-19T00:42:47;38.66;35.31;41.06;;
66747;Laerm;53658;50.742;10.864;2023-09-19T00:45:17;38.80;35.66;42.47;;
66747;Laerm;53658;50.742;10.864;2023-09-19T00:47:46;38.76;35.66;43.54;;
66747;Laerm;53658;50.742;10.864;2023-09-19T00:50:20;38.66;35.36;40.89;;
66747;Laerm;53658;50.742;10.864;2023-09-19T00:52:49;38.68;35.94;42.29;;
66747;Laerm;53658;50.742;10.864;2023-09-19T00:55:17;38.64;35.36;41.30;;
66747;Laerm;53658;50.742;10.864;2023-09-19T00:57:46;38.62;35.36;41.38;;
66747;Laerm;53658;50.742;10.864;2023-09-19T01:00:15;38.73;35.31;41.96;;
66747;Laerm;53658;50.742;10.864;2023-09-19T01:02:42;38.75;35.36;41.38;;
66747;Laerm;53658;50.742;10.864;2023-09-19T01:05:09;38.60;35.66;40.98;;
66747;Laerm;53658;50.742;10.864;2023-09-19T01:07:36;38.61;35.66;40.98;;
66747;Laerm;53658;50.742;10.864;2023-09-19T01:10:04;38.69;35.36;42.93;;
66747;Laerm;53658;50.742;10.864;2023-09-19T01:26:06;38.68;35.36;41.06;;
66747;Laerm;53658;50.742;10.864;2023-09-19T01:31:11;38.66;35.94;42.93;;
66747;Laerm;53658;50.742;10.864;2023-09-19T01:33:57;38.62;35.66;41.82;;
66747;Laerm;53658;50.742;10.864;2023-09-19T01:36:26;38.57;35.04;41.30;;
66747;Laerm;53658;50.742;10.864;2023-09-19T01:38:54;38.64;34.69;40.80;;
66747;Laerm;53658;50.742;10.864;2023-09-19T01:41:33;38.63;35.36;42.16;;
66747;Laerm;53658;50.742;10.864;2023-09-19T01:44:08;38.69;35.66;41.14;;
66747;Laerm;53658;50.742;10.864;2023-09-19T01:46:41;38.75;35.66;42.42;;
66747;Laerm;53658;50.742;10.864;2023-09-19T01:54:11;38.71;35.86;42.93;;
66747;Laerm;53658;50.742;10.864;2023-09-19T01:59:30;38.65;35.36;40.98;;
66747;Laerm;53658;50.742;10.864;2023-09-19T02:02:00;38.68;35.36;41.22;;
66747;Laerm;53658;50.742;10.864;2023-09-19T02:04:27;38.72;35.04;41.38;;
66747;Laerm;53658;50.742;10.864;2023-09-19T02:06:54;38.68;35.36;42.09;;
66747;Laerm;53658;50.742;10.864;2023-09-19T02:09:21;38.60;35.04;40.71;;
66747;Laerm;53658;50.742;10.864;2023-09-19T02:11:47;38.55;34.69;40.98;;
66747;Laerm;53658;50.742;10.864;2023-09-19T02:14:12;38.62;35.66;41.06;;
66747;Laerm;53658;50.742;10.864;2023-09-19T02:16:39;38.63;35.04;40.98;;
66747;Laerm;53658;50.742;10.864;2023-09-19T02:19:05;38.65;35.36;41.06;;
66747;Laerm;53658;50.742;10.864;2023-09-19T02:21:31;38.63;35.36;41.22;;
66747;Laerm;53658;50.742;10.864;2023-09-19T02:23:58;38.58;35.01;40.71;;
66747;Laerm;53658;50.742;10.864;2023-09-19T02:26:24;38.71;35.66;42.22;;
66747;Laerm;53658;50.742;10.864;2023-09-19T02:28:50;38.81;35.04;42.29;;
66747;Laerm;53658;50.742;10.864;2023-09-19T02:31:16;38.66;35.86;41.61;;
66747;Laerm;53658;50.742;10.864;2023-09-19T02:33:42;38.58;35.04;41.14;;
66747;Laerm;53658;50.742;10.864;2023-09-19T02:36:09;38.56;35.36;40.98;;
66747;Laerm;53658;50.742;10.864;2023-09-19T02:38:35;38.74;35.66;41.68;;
66747;Laerm;53658;50.742;10.864;2023-09-19T02:41:03;38.73;35.36;41.38;;
66747;Laerm;53658;50.742;10.864;2023-09-19T02:43:29;38.66;35.04;41.22;;
66747;Laerm;53658;50.742;10.864;2023-09-19T02:45:55;38.59;35.04;40.71;;
66747;Laerm;53658;50.742;10.864;2023-09-19T02:48:22;38.58;34.69;41.06;;
66747;Laerm;53658;50.742;10.864;2023-09-19T02:50:52;38.55;35.36;40.79;;
66747;Laerm;53658;50.742;10.864;2023-09-19T02:53:18;38.52;35.36;40.89;;
66747;Laerm;53658;50.742;10.864;2023-09-19T02:55:44;38.61;35.59;42.82;;
66747;Laerm;53658;50.742;10.864;2023-09-19T02:58:10;38.91;35.86;45.30;;
66747;Laerm;53658;50.742;10.864;2023-09-19T03:00:38;38.56;35.66;41.14;;
66747;Laerm;53658;50.742;10.864;2023-09-19T03:03:04;38.60;34.69;42.71;;
66747;Laerm;53658;50.742;10.864;2023-09-19T03:05:32;38.68;35.66;44.23;;
66747;Laerm;53658;50.742;10.864;2023-09-19T03:07:59;38.60;35.94;40.80;;
66747;Laerm;53658;50.742;10.864;2023-09-19T03:10:29;38.59;35.66;40.80;;
66747;Laerm;53658;50.742;10.864;2023-09-19T03:12:58;38.59;35.36;41.22;;
66747;Laerm;53658;50.742;10.864;2023-09-19T03:15:27;38.59;35.36;40.71;;
66747;Laerm;53658;50.742;10.864;2023-09-19T03:17:53;38.58;34.69;40.89;;
66747;Laerm;53658;50.742;10.864;2023-09-19T03:20:22;38.59;35.66;40.80;;
66747;Laerm;53658;50.742;10.864;2023-09-19T03:22:48;38.58;35.94;40.89;;
66747;Laerm;53658;50.742;10.864;2023-09-19T03:25:15;38.62;35.04;40.98;;
66747;Laerm;53658;50.742;10.864;2023-09-19T03:27:45;38.59;35.36;41.30;;
66747;Laerm;53658;50.742;10.864;2023-09-19T03:30:13;38.58;35.66;40.89;;
66747;Laerm;53658;50.742;10.864;2023-09-19T03:32:47;38.63;35.36;41.30;;
66747;Laerm;53658;50.742;10.864;2023-09-19T03:35:16;38.70;35.66;41.30;;
66747;Laerm;53658;50.742;10.864;2023-09-19T03:37:43;38.70;35.66;41.46;;
66747;Laerm;53658;50.742;10.864;2023-09-19T03:40:10;38.69;35.66;41.30;;
66747;Laerm;53658;50.742;10.864;2023-09-19T03:42:40;38.76;35.36;41.30;;
66747;Laerm;53658;50.742;10.864;2023-09-19T03:45:08;38.67;35.66;40.98;;
66747;Laerm;53658;50.742;10.864;2023-09-19T03:47:39;38.68;35.66;41.53;;
66747;Laerm;53658;50.742;10.864;2023-09-19T03:50:07;38.69;35.04;41.53;;
66747;Laerm;53658;50.742;10.864;2023-09-19T03:52:36;38.60;35.36;41.96;;
66747;Laerm;53658;50.742;10.864;2023-09-19T03:55:02;38.62;35.36;40.98;;
66747;Laerm;53658;50.742;10.864;2023-09-19T03:57:30;38.66;35.66;41.89;;
66747;Laerm;53658;50.742;10.864;2023-09-19T03:59:56;38.56;35.66;40.80;;
66747;Laerm;53658;50.742;10.864;2023-09-19T04:02:23;48.60;36.20;83.74;;
66747;Laerm;53658;50.742;10.864;2023-09-19T04:04:51;40.87;35.36;54.53;;
66747;Laerm;53658;50.742;10.864;2023-09-19T04:07:18;39.25;35.66;52.23;;
66747;Laerm;53658;50.742;10.864;2023-09-19T04:09:48;38.64;35.04;46.55;;
66747;Laerm;53658;50.742;10.864;2023-09-19T04:12:15;38.58;35.36;41.06;;
66747;Laerm;53658;50.742;10.864;2023-09-19T04:14:42;38.70;35.94;41.75;;
66747;Laerm;53658;50.742;10.864;2023-09-19T04:17:09;38.73;36.20;41.46;;
66747;Laerm;53658;50.742;10.864;2023-09-19T04:19:36;38.73;36.20;41.53;;
66747;Laerm;53658;50.742;10.864;2023-09-19T04:22:04;38.74;35.36;41.06;;
66747;Laerm;53658;50.742;10.864;2023-09-19T04:24:30;38.75;36.45;40.80;;
66747;Laerm;53658;50.742;10.864;2023-09-19T04:26:57;38.81;36.20;41.46;;
66747;Laerm;53658;50.742;10.864;2023-09-19T04:29:25;38.81;36.45;41.82;;
66747;Laerm;53658;50.742;10.864;2023-09-19T04:31:52;38.81;36.20;40.89;;
66747;Laerm;53658;50.742;10.864;2023-09-19T04:34:18;38.75;36.10;41.06;;
66747;Laerm;53658;50.742;10.864;2023-09-19T04:36:44;38.76;35.94;40.88;;
66747;Laerm;53658;50.742;10.864;2023-09-19T04:39:10;38.77;35.36;41.14;;
66747;Laerm;53658;50.742;10.864;2023-09-19T04:41:38;38.77;35.36;40.80;;
66747;Laerm;53658;50.742;10.864;2023-09-19T04:44:06;38.76;36.45;41.30;;
66747;Laerm;53658;50.742;10.864;2023-09-19T04:46:33;38.84;35.94;41.06;;
66747;Laerm;53658;50.742;10.864;2023-09-19T04:48:59;38.87;35.66;40.71;;
66747;Laerm;53658;50.742;10.864;2023-09-19T04:51:26;38.77;35.66;41.06;;
66747;Laerm;53658;50.742;10.864;2023-09-19T04:53:55;38.68;35.66;41.30;;
66747;Laerm;53658;50.742;10.864;2023-09-19T04:56:21;38.68;35.94;40.89;;
66747;Laerm;53658;50.742;10.864;2023-09-19T04:58:48;38.69;35.66;40.98;;
66747;Laerm;53658;50.742;10.864;2023-09-19T05:01:14;38.62;35.94;41.46;;
66747;Laerm;53658;50.742;10.864;2023-09-19T05:03:40;38.58;35.94;40.80;;
66747;Laerm;53658;50.742;10.864;2023-09-19T05:06:07;38.57;35.66;40.62;;
66747;Laerm;53658;50.742;10.864;2023-09-19T05:08:32;38.59;35.66;40.98;;
66747;Laerm;53658;50.742;10.864;2023-09-19T05:11:01;38.55;35.66;40.89;;
66747;Laerm;53658;50.742;10.864;2023-09-19T05:13:28;38.61;35.36;40.71;;
66747;Laerm;53658;50.742;10.864;2023-09-19T05:15:53;38.67;35.94;40.71;;
66747;Laerm;53658;50.742;10.864;2023-09-19T05:18:19;38.60;35.04;41.06;;
66747;Laerm;53658;50.742;10.864;2023-09-19T05:20:45;38.54;35.66;41.06;;
66747;Laerm;53658;50.742;10.864;2023-09-19T05:23:11;38.57;35.36;40.80;;
66747;Laerm;53658;50.742;10.864;2023-09-19T05:25:39;38.64;35.66;41.89;;
66747;Laerm;53658;50.742;10.864;2023-09-19T05:28:07;38.76;35.36;41.75;;
66747;Laerm;53658;50.742;10.864;2023-09-19T05:30:34;38.72;34.69;41.68;;
66747;Laerm;53658;50.742;10.864;2023-09-19T05:33:02;38.74;35.04;42.88;;
66747;Laerm;53658;50.742;10.864;2023-09-19T05:35:30;38.85;35.36;41.75;;
66747;Laerm;53658;50.742;10.864;2023-09-19T05:37:57;38.85;35.66;41.38;;
66747;Laerm;53658;50.742;10.864;2023-09-19T05:40:24;38.86;35.36;41.82;;
66747;Laerm;53658;50.742;10.864;2023-09-19T05:42:50;38.73;35.36;40.98;;
66747;Laerm;53658;50.742;10.864;2023-09-19T05:45:16;38.51;35.36;40.53;;
66747;Laerm;53658;50.742;10.864;2023-09-19T05:47:49;38.51;35.36;40.80;;
66747;Laerm;53658;50.742;10.864;2023-09-19T05:50:15;38.52;35.31;40.89;;
66747;Laerm;53658;50.742;10.864;2023-09-19T05:52:42;38.52;35.36;41.22;;
66747;Laerm;53658;50.742;10.864;2023-09-19T05:55:11;38.59;35.36;41.53;;
66747;Laerm;53658;50.742;10.864;2023-09-19T05:57:37;38.63;35.94;44.03;;
66747;Laerm;53658;50.742;10.864;2023-09-19T06:00:08;38.70;36.20;42.74;;
66747;Laerm;53658;50.742;10.864;2023-09-19T06:02:37;38.74;36.10;40.89;;
66747;Laerm;53658;50.742;10.864;2023-09-19T06:05:07;38.84;36.45;40.80;;
66747;Laerm;53658;50.742;10.864;2023-09-19T06:07:37;38.98;36.20;42.98;;
66747;Laerm;53658;50.742;10.864;2023-09-19T06:10:04;38.93;36.20;40.98;;
66747;Laerm;53658;50.742;10.864;2023-09-19T06:12:44;38.90;36.20;40.80;;
66747;Laerm;53658;50.742;10.864;2023-09-19T06:15:11;38.92;36.20;41.06;;
66747;Laerm;53658;50.742;10.864;2023-09-19T06:17:43;38.92;36.20;40.98;;
66747;Laerm;53658;50.742;10.864;2023-09-19T06:20:12;39.03;36.20;41.53;;
66747;Laerm;53658;50.742;10.864;2023-09-19T06:22:42;39.08;36.69;40.80;;
66747;Laerm;53658;50.742;10.864;2023-09-19T06:25:09;39.05;36.69;40.98;;
66747;Laerm;53658;50.742;10.864;2023-09-19T06:27:38;39.04;36.45;41.14;;
66747;Laerm;53658;50.742;10.864;2023-09-19T06:30:09;39.02;36.20;40.89;;
66747;Laerm;53658;50.742;10.864;2023-09-19T06:32:35;39.01;36.69;40.89;;
66747;Laerm;53658;50.742;10.864;2023-09-19T06:35:01;39.11;35.66;40.96;;
66747;Laerm;53658;50.742;10.864;2023-09-19T06:37:29;39.26;36.91;41.06;;
66747;Laerm;53658;50.742;10.864;2023-09-19T06:39:55;39.31;36.91;41.14;;
66747;Laerm;53658;50.742;10.864;2023-09-19T06:42:22;39.34;37.32;41.14;;
66747;Laerm;53658;50.742;10.864;2023-09-19T06:44:49;39.25;36.91;40.98;;
66747;Laerm;53658;50.742;10.864;2023-09-19T06:47:15;39.32;37.32;41.30;;
66747;Laerm;53658;50.742;10.864;2023-09-19T06:49:42;39.37;37.12;40.89;;
66747;Laerm;53658;50.742;10.864;2023-09-19T06:52:11;39.34;37.12;40.98;;
66747;Laerm;53658;50.742;10.864;2023-09-19T06:54:37;39.29;36.91;40.89;;
66747;Laerm;53658;50.742;10.864;2023-09-19T06:57:03;39.39;36.91;41.22;;
66747;Laerm;53658;50.742;10.864;2023-09-19T06:59:29;39.36;37.12;41.06;;
66747;Laerm;53658;50.742;10.864;2023-09-19T07:01:55;39.37;36.91;41.61;;
66747;Laerm;53658;50.742;10.864;2023-09-19T07:04:20;39.32;36.91;40.98;;
66747;Laerm;53658;50.742;10.864;2023-09-19T07:06:49;39.31;36.91;41.22;;
66747;Laerm;53658;50.742;10.864;2023-09-19T07:09:16;39.34;36.91;41.14;;
66747;Laerm;53658;50.742;10.864;2023-09-19T07:11:43;39.65;37.12;45.99;;
66747;Laerm;53658;50.742;10.864;2023-09-19T07:14:09;39.37;37.32;42.09;;
66747;Laerm;53658;50.742;10.864;2023-09-19T07:16:38;39.47;37.12;41.14;;
66747;Laerm;53658;50.742;10.864;2023-09-19T07:19:05;39.47;37.32;41.22;;
66747;Laerm;53658;50.742;10.864;2023-09-19T07:21:31;39.43;37.32;41.14;;
66747;Laerm;53658;50.742;10.864;2023-09-19T07:24:01;39.47;37.32;42.59;;
66747;Laerm;53658;50.742;10.864;2023-09-19T07:26:30;39.44;37.32;41.14;;
66747;Laerm;53658;50.742;10.864;2023-09-19T07:28:56;39.44;37.32;41.38;;
66747;Laerm;53658;50.742;10.864;2023-09-19T07:31:23;39.67;37.70;41.96;;
66747;Laerm;53658;50.742;10.864;2023-09-19T07:33:51;40.00;38.02;42.22;;
66747;Laerm;53658;50.742;10.864;2023-09-19T07:36:17;40.18;38.37;41.75;;
66747;Laerm;53658;50.742;10.864;2023-09-19T07:38:43;40.36;38.21;47.26;;
66747;Laerm;53658;50.742;10.864;2023-09-19T07:41:09;40.63;38.81;42.71;;
66747;Laerm;53658;50.742;10.864;2023-09-19T07:43:35;40.72;38.81;42.16;;
66747;Laerm;53658;50.742;10.864;2023-09-19T07:46:05;40.67;38.37;42.41;;
66747;Laerm;53658;50.742;10.864;2023-09-19T07:48:35;40.74;38.95;42.16;;
66747;Laerm;53658;50.742;10.864;2023-09-19T07:51:07;40.76;38.81;45.72;;
66747;Laerm;53658;50.742;10.864;2023-09-19T07:53:35;40.66;38.52;43.72;;
66747;Laerm;53658;50.742;10.864;2023-09-19T07:56:02;40.61;38.21;42.29;;
66747;Laerm;53658;50.742;10.864;2023-09-19T07:58:29;40.55;38.21;42.59;;
66747;Laerm;53658;50.742;10.864;2023-09-19T08:00:55;40.59;38.21;42.16;;
66747;Laerm;53658;50.742;10.864;2023-09-19T08:03:21;40.89;38.52;47.65;;
66747;Laerm;53658;50.742;10.864;2023-09-19T08:05:46;40.66;38.21;42.71;;
66747;Laerm;53658;50.742;10.864;2023-09-19T08:08:14;40.62;38.67;42.16;;
66747;Laerm;53658;50.742;10.864;2023-09-19T08:10:40;40.64;38.37;42.22;;
66747;Laerm;53658;50.742;10.864;2023-09-19T08:13:07;40.62;38.52;42.16;;
66747;Laerm;53658;50.742;10.864;2023-09-19T08:15:43;40.53;38.21;43.99;;
66747;Laerm;53658;50.742;10.864;2023-09-19T08:18:13;40.33;37.70;42.53;;
66747;Laerm;53658;50.742;10.864;2023-09-19T08:20:40;40.19;37.70;42.22;;
66747;Laerm;53658;50.742;10.864;2023-09-19T08:23:08;40.16;37.87;47.46;;
66747;Laerm;53658;50.742;10.864;2023-09-19T08:25:34;40.06;37.32;43.94;;
66747;Laerm;53658;50.742;10.864;2023-09-19T08:28:00;40.03;37.32;50.32;;
66747;Laerm;53658;50.742;10.864;2023-09-19T08:30:29;39.86;36.91;41.75;;
66747;Laerm;53658;50.742;10.864;2023-09-19T08:33:02;44.06;36.69;60.56;;
66747;Laerm;53658;50.742;10.864;2023-09-19T08:35:30;39.71;36.91;42.93;;
66747;Laerm;53658;50.742;10.864;2023-09-19T08:37:56;39.88;35.66;45.57;;
66747;Laerm;53658;50.742;10.864;2023-09-19T08:40:22;39.64;36.20;42.76;;
66747;Laerm;53658;50.742;10.864;2023-09-19T08:42:51;39.63;36.69;41.61;;
66747;Laerm;53658;50.742;10.864;2023-09-19T08:45:23;39.69;35.94;44.47;;
66747;Laerm;53658;50.742;10.864;2023-09-19T08:48:20;39.67;36.45;44.19;;
66747;Laerm;53658;50.742;10.864;2023-09-19T08:51:06;39.56;36.45;42.22;;
66747;Laerm;53658;50.742;10.864;2023-09-19T08:56:08;39.94;36.20;54.89;;
66747;Laerm;53658;50.742;10.864;2023-09-19T08:58:44;39.59;36.20;42.59;;
66747;Laerm;53658;50.742;10.864;2023-09-19T09:01:15;39.65;36.20;43.29;;
66747;Laerm;53658;50.742;10.864;2023-09-19T09:03:43;39.68;36.69;42.09;;
66747;Laerm;53658;50.742;10.864;2023-09-19T09:06:14;39.66;36.69;43.54;;
66747;Laerm;53658;50.742;10.864;2023-09-19T09:08:42;39.66;36.69;43.14;;
66747;Laerm;53658;50.742;10.864;2023-09-19T09:11:08;39.81;36.45;44.35;;
66747;Laerm;53658;50.742;10.864;2023-09-19T09:13:36;39.83;37.12;41.96;;
66747;Laerm;53658;50.742;10.864;2023-09-19T09:16:03;39.99;36.91;44.19;;
66747;Laerm;53658;50.742;10.864;2023-09-19T09:18:29;39.88;37.12;42.47;;
66747;Laerm;53658;50.742;10.864;2023-09-19T09:20:58;39.95;37.32;41.82;;
66747;Laerm;53658;50.742;10.864;2023-09-19T09:23:23;39.91;37.32;42.98;;
66747;Laerm;53658;50.742;10.864;2023-09-19T09:25:56;39.93;36.69;46.57;;
66747;Laerm;53658;50.742;10.864;2023-09-19T09:28:25;39.74;36.69;42.76;;
66747;Laerm;53658;50.742;10.864;2023-09-19T09:30:52;39.62;36.20;43.63;;
66747;Laerm;53658;50.742;10.864;2023-09-19T09:33:18;39.56;36.20;42.93;;
66747;Laerm;53658;50.742;10.864;2023-09-19T09:36:03;39.52;36.69;41.82;;
66747;Laerm;53658;50.742;10.864;2023-09-19T09:38:44;39.69;36.45;46.10;;
66747;Laerm;53658;50.742;10.864;2023-09-19T09:41:11;39.67;36.45;45.27;;
66747;Laerm;53658;50.742;10.864;2023-09-19T09:43:42;39.62;36.20;43.86;;
66747;Laerm;53658;50.742;10.864;2023-09-19T09:46:16;39.47;36.20;42.59;;
66747;Laerm;53658;50.742;10.864;2023-09-19T09:51:49;39.66;36.69;43.24;;
66747;Laerm;53658;50.742;10.864;2023-09-19T09:54:31;39.57;36.20;41.68;;
66747;Laerm;53658;50.742;10.864;2023-09-19T09:57:07;39.58;36.69;41.61;;
66747;Laerm;53658;50.742;10.864;2023-09-19T09:59:51;39.75;36.69;47.02;;
66747;Laerm;53658;50.742;10.864;2023-09-19T10:02:21;39.54;36.45;50.93;;
66747;Laerm;53658;50.742;10.864;2023-09-19T10:04:51;40.13;35.66;55.80;;
66747;Laerm;53658;50.742;10.864;2023-09-19T10:07:31;39.37;35.66;41.38;;
66747;Laerm;53658;50.742;10.864;2023-09-19T10:10:33;39.31;35.94;44.19;;
66747;Laerm;53658;50.742;10.864;2023-09-19T10:13:06;39.15;35.04;41.53;;
66747;Laerm;53658;50.742;10.864;2023-09-19T10:15:34;39.15;35.94;41.61;;
66747;Laerm;53658;50.742;10.864;2023-09-19T10:18:05;39.08;35.36;41.53;;
66747;Laerm;53658;50.742;10.864;2023-09-19T10:20:39;39.09;35.36;41.61;;
66747;Laerm;53658;50.742;10.864;2023-09-19T10:23:09;39.11;35.36;44.03;;
66747;Laerm;53658;50.742;10.864;2023-09-19T10:25:40;39.27;35.66;48.91;;
66747;Laerm;53658;50.742;10.864;2023-09-19T10:28:09;39.05;35.36;41.96;;
66747;Laerm;53658;50.742;10.864;2023-09-19T10:30:47;39.36;35.04;50.31;;
66747;Laerm;53658;50.742;10.864;2023-09-19T10:33:17;39.16;35.36;44.80;;
66747;Laerm;53658;50.742;10.864;2023-09-19T10:35:48;39.33;35.66;45.43;;
66747;Laerm;53658;50.742;10.864;2023-09-19T10:38:18;39.08;35.04;42.47;;
66747;Laerm;53658;50.742;10.864;2023-09-19T10:40:50;39.12;35.94;43.99;;
66747;Laerm;53658;50.742;10.864;2023-09-19T10:43:19;39.18;35.36;45.01;;
66747;Laerm;53658;50.742;10.864;2023-09-19T10:45:47;39.34;35.36;45.89;;
66747;Laerm;53658;50.742;10.864;2023-09-19T10:48:19;39.43;35.94;49.29;;
66747;Laerm;53658;50.742;10.864;2023-09-19T10:50:51;39.32;35.94;51.41;;
66747;Laerm;53658;50.742;10.864;2023-09-19T10:53:20;39.26;36.45;41.75;;
66747;Laerm;53658;50.742;10.864;2023-09-19T10:55:58;39.30;35.36;41.61;;
66747;Laerm;53658;50.742;10.864;2023-09-19T10:58:31;39.35;36.45;41.53;;
66747;Laerm;53658;50.742;10.864;2023-09-19T11:01:01;39.45;35.36;45.17;;
66747;Laerm;53658;50.742;10.864;2023-09-19T11:03:38;39.31;35.94;41.61;;
66747;Laerm;53658;50.742;10.864;2023-09-19T11:06:15;39.28;36.20;43.77;;
66747;Laerm;53658;50.742;10.864;2023-09-19T11:09:01;39.21;35.36;42.88;;
66747;Laerm;53658;50.742;10.864;2023-09-19T11:11:50;39.36;35.94;46.56;;
66747;Laerm;53658;50.742;10.864;2023-09-19T11:30:49;39.27;35.66;41.53;;
66747;Laerm;53658;50.742;10.864;2023-09-19T11:33:16;39.85;35.36;49.33;;
66747;Laerm;53658;50.742;10.864;2023-09-19T11:36:07;39.79;35.94;56.44;;
66747;Laerm;53658;50.742;10.864;2023-09-19T11:43:49;39.18;35.36;44.19;;
66747;Laerm;53658;50.742;10.864;2023-09-19T11:46:17;39.32;35.66;47.36;;
66747;Laerm;53658;50.742;10.864;2023-09-19T11:48:51;39.14;35.36;43.94;;
66747;Laerm;53658;50.742;10.864;2023-09-19T11:51:20;39.22;35.36;42.35;;
66747;Laerm;53658;50.742;10.864;2023-09-19T11:53:54;39.38;35.94;45.51;;
66747;Laerm;53658;50.742;10.864;2023-09-19T11:56:22;39.17;35.36;44.80;;
66747;Laerm;53658;50.742;10.864;2023-09-19T11:58:52;39.12;33.97;49.16;;
66747;Laerm;53658;50.742;10.864;2023-09-19T12:01:23;39.06;34.69;46.02;;
66747;Laerm;53658;50.742;10.864;2023-09-19T12:03:56;38.81;35.04;44.15;;
66747;Laerm;53658;50.742;10.864;2023-09-19T12:06:25;39.20;34.31;47.86;;
66747;Laerm;53658;50.742;10.864;2023-09-19T12:08:51;38.80;34.31;44.27;;
66747;Laerm;53658;50.742;10.864;2023-09-19T12:11:21;38.77;33.90;48.54;;
66747;Laerm;53658;50.742;10.864;2023-09-19T12:13:49;38.72;35.04;41.46;;
66747;Laerm;53658;50.742;10.864;2023-09-19T12:16:18;39.09;35.04;47.16;;
66747;Laerm;53658;50.742;10.864;2023-09-19T12:18:48;39.01;35.04;44.39;;
66747;Laerm;53658;50.742;10.864;2023-09-19T12:21:29;38.80;35.04;44.58;;
66747;Laerm;53658;50.742;10.864;2023-09-19T12:26:42;38.82;34.69;42.76;;
66747;Laerm;53658;50.742;10.864;2023-09-19T12:29:16;39.04;34.69;49.27;;
66747;Laerm;53658;50.742;10.864;2023-09-19T12:31:49;38.86;35.04;43.34;;
66747;Laerm;53658;50.742;10.864;2023-09-19T12:34:20;38.96;34.69;45.51;;
66747;Laerm;53658;50.742;10.864;2023-09-19T12:36:47;38.96;34.69;48.70;;
66747;Laerm;53658;50.742;10.864;2023-09-19T12:39:24;38.82;35.36;43.14;;
66747;Laerm;53658;50.742;10.864;2023-09-19T12:41:55;38.76;35.04;42.76;;
66747;Laerm;53658;50.742;10.864;2023-09-19T12:44:22;38.80;35.01;42.88;;
66747;Laerm;53658;50.742;10.864;2023-09-19T12:46:50;39.02;34.31;50.66;;
66747;Laerm;53658;50.742;10.864;2023-09-19T12:49:18;38.82;34.69;42.59;;
66747;Laerm;53658;50.742;10.864;2023-09-19T12:51:46;38.84;35.04;44.83;;
66747;Laerm;53658;50.742;10.864;2023-09-19T12:54:16;39.12;35.59;47.63;;
66747;Laerm;53658;50.742;10.864;2023-09-19T12:56:44;38.79;34.69;43.54;;
66747;Laerm;53658;50.742;10.864;2023-09-19T12:59:13;38.74;34.69;41.38;;
66747;Laerm;53658;50.742;10.864;2023-09-19T13:01:43;38.84;35.36;41.38;;
66747;Laerm;53658;50.742;10.864;2023-09-19T13:04:15;39.01;34.69;44.69;;
66747;Laerm;53658;50.742;10.864;2023-09-19T13:06:46;38.94;33.90;47.98;;
66747;Laerm;53658;50.742;10.864;2023-09-19T13:09:15;38.76;35.04;43.68;;
66747;Laerm;53658;50.742;10.864;2023-09-19T13:11:42;38.81;34.69;43.39;;
66747;Laerm;53658;50.742;10.864;2023-09-19T13:14:26;38.76;34.31;43.49;;
66747;Laerm;53658;50.742;10.864;2023-09-19T13:19:53;39.07;33.97;47.42;;
66747;Laerm;53658;50.742;10.864;2023-09-19T13:22:45;38.75;33.90;43.44;;
66747;Laerm;53658;50.742;10.864;2023-09-19T13:25:17;38.87;34.69;46.93;;
66747;Laerm;53658;50.742;10.864;2023-09-19T13:27:51;38.74;34.69;42.88;;
66747;Laerm;53658;50.742;10.864;2023-09-19T13:30:18;38.68;35.36;44.23;;
66747;Laerm;53658;50.742;10.864;2023-09-19T13:32:45;38.84;34.69;43.68;;
66747;Laerm;53658;50.742;10.864;2023-09-19T13:35:15;38.84;34.31;45.30;;
66747;Laerm;53658;50.742;10.864;2023-09-19T13:37:43;41.44;35.36;58.52;;
66747;Laerm;53658;50.742;10.864;2023-09-19T13:40:11;39.26;33.90;49.67;;
66747;Laerm;53658;50.742;10.864;2023-09-19T13:42:37;39.47;35.04;48.69;;
66747;Laerm;53658;50.742;10.864;2023-09-19T13:45:04;38.71;35.04;43.19;;
66747;Laerm;53658;50.742;10.864;2023-09-19T13:47:33;38.79;35.04;42.93;;
66747;Laerm;53658;50.742;10.864;2023-09-19T13:50:02;38.84;35.31;41.19;;
66747;Laerm;53658;50.742;10.864;2023-09-19T13:52:31;39.50;35.04;47.38;;
66747;Laerm;53658;50.742;10.864;2023-09-19T13:54:58;38.93;34.31;43.58;;
66747;Laerm;53658;50.742;10.864;2023-09-19T13:57:27;38.86;35.04;45.39;;
66747;Laerm;53658;50.742;10.864;2023-09-19T13:59:55;38.77;35.04;42.82;;
66747;Laerm;53658;50.742;10.864;2023-09-19T14:02:22;39.41;33.90;49.58;;
66747;Laerm;53658;50.742;10.864;2023-09-19T14:04:53;38.86;34.69;43.54;;
66747;Laerm;53658;50.742;10.864;2023-09-19T14:07:19;38.80;34.69;43.39;;
66747;Laerm;53658;50.742;10.864;2023-09-19T14:09:46;38.69;34.69;43.86;;
66747;Laerm;53658;50.742;10.864;2023-09-19T14:12:13;38.74;34.34;43.72;;
66747;Laerm;53658;50.742;10.864;2023-09-19T14:14:39;38.92;34.31;43.09;;
66747;Laerm;53658;50.742;10.864;2023-09-19T14:17:07;38.70;35.36;42.35;;
66747;Laerm;53658;50.742;10.864;2023-09-19T14:19:33;38.68;35.04;42.47;;
66747;Laerm;53658;50.742;10.864;2023-09-19T14:22:00;38.66;34.69;41.61;;
66747;Laerm;53658;50.742;10.864;2023-09-19T14:24:33;38.63;35.04;40.89;;
66747;Laerm;53658;50.742;10.864;2023-09-19T14:27:00;38.63;34.69;41.14;;
66747;Laerm;53658;50.742;10.864;2023-09-19T14:29:26;38.61;34.69;42.53;;
66747;Laerm;53658;50.742;10.864;2023-09-19T14:31:51;38.59;34.69;41.82;;
66747;Laerm;53658;50.742;10.864;2023-09-19T14:34:17;38.58;33.90;41.96;;
66747;Laerm;53658;50.742;10.864;2023-09-19T14:36:45;38.50;34.69;41.14;;
66747;Laerm;53658;50.742;10.864;2023-09-19T14:39:11;38.55;34.31;42.16;;